Have a Safe July 4th! 

Flight Track Log - Related Links

Times and Time Zones

All times are in EDT time to prevent confusion due to time zone crossing. See the FEX11 flight status page for this flight to view local times or setup timezone preferences in your user account.

Time Position Orientation Groundspeed Altitude Reporting Facility
EDT Latitude Longitude Course Direction KTS MPH feet Rate Location/Type
Fri 01:26:05 PM 43.6417 -70.3733 282° West 196 226 2,200  Level Boston Center
Fri 01:27:06 PM 43.6556 -70.4672 282° West 253 291 3,000 1,426 Climbing Boston Center
Fri 01:28:07 PM 43.6789 -70.5631 289° West 260 299 5,100 3,025 Climbing Boston Center
Fri 01:29:07 PM 43.6983 -70.6714 284° West 270 311 9,100 3,124 Climbing Boston Center
Fri 01:30:08 PM 43.7194 -70.7867 284° West 314 361 11,400 2,952 Climbing Boston Center
Fri 01:31:11 PM 43.7025 -70.9056 259° West 317 365 15,200 3,194 Climbing Boston Center
Fri 01:32:12 PM 43.6625 -71.0161 243° Southwest 317 365 18,000 2,628 Climbing Boston Center
Fri 01:33:12 PM 43.6389 -71.1328 254° West 337 388 20,500 2,371 Climbing Boston Center
Fri 01:34:16 PM 43.6200 -71.2581 258° West 339 390 22,900 1,824 Climbing Boston Center
Fri 01:35:17 PM 43.6022 -71.3894 259° West 347 399 24,300 1,918 Climbing Boston Center
Fri 01:36:18 PM 43.6006 -71.5578 269° West 364 419 26,800 2,213 Climbing Boston Center
Fri 01:37:19 PM 43.5861 -71.6875 261° West 349 402 28,800 1,918 Climbing Boston Center
Fri 01:38:20 PM 43.5769 -71.8192 265° West 348 400 30,700 1,686 Climbing Boston Center
Fri 01:39:20 PM 43.5686 -71.9533 265° West 348 400 32,200 1,210 Climbing Boston Center
Fri 01:40:24 PM 43.5581 -72.0839 264° West 348 400 33,200 1,113 Climbing Boston Center
Fri 01:41:24 PM 43.5475 -72.2186 264° West 350 403 34,500 1,339 Climbing Boston Center
Fri 01:42:25 PM 43.5361 -72.3531 263° West 355 409 35,900 738 Climbing Boston Center
Fri 01:43:26 PM 43.5256 -72.4892 264° West 355 409 36,000 50 Climbing Boston Center
Fri 01:44:26 PM 43.5150 -72.6300 264° West 367 422 36,000  Level Boston Center
Fri 01:45:27 PM 43.4994 -72.8056 263° West 381 438 36,000  Level Boston Center
Fri 01:46:31 PM 43.4872 -72.9544 264° West 390 449 36,000  Level Boston Center
Fri 01:47:32 PM 43.4756 -73.0931 263° West 395 455 36,000  Level Boston Center
Fri 01:48:32 PM 43.4619 -73.2442 263° West 396 456 36,000  Level Boston Center
Fri 01:49:33 PM 43.4489 -73.3944 263° West 396 456 36,000  Level Boston Center
Fri 01:50:34 PM 43.4333 -73.5769 263° West 397 457 36,000  Level Boston Center
Fri 01:51:37 PM 43.4192 -73.7261 263° West 397 457 36,000  Level Boston Center
Fri 01:52:39 PM 43.4047 -73.8767 263° West 397 457 36,000  Level Boston Center
Fri 01:53:39 PM 43.3906 -74.0267 263° West 397 457 36,000  Level Boston Center
Fri 01:54:40 PM 43.3756 -74.1828 263° West 397 457 36,000  Level Boston Center
Fri 01:55:40 PM 43.3600 -74.3342 262° West 396 456 36,000  Level Boston Center
Fri 01:56:41 PM 43.3456 -74.4844 263° West 399 459 36,000  Level Boston Center
Fri 01:57:42 PM 43.3311 -74.6350 263° West 399 459 36,000  Level Boston Center
Fri 01:58:45 PM 43.3164 -74.7858 262° West 400 460 36,000  Level Boston Center
Fri 01:59:46 PM 43.3011 -74.9353 262° West 399 459 36,000  Level Boston Center
Fri 02:00:46 PM 43.2844 -75.0872 261° West 401 461 36,000  Level Boston Center
Fri 02:01:47 PM 43.2669 -75.2483 262° West 401 461 36,000  Level Boston Center
Fri 02:02:47 PM 43.2511 -75.4008 262° West 403 464 36,000  Level Boston Center
Fri 02:03:51 PM 43.2350 -75.5525 262° West 402 463 36,000  Level Boston Center
Fri 02:04:51 PM 43.2181 -75.7031 261° West 402 463 36,000  Level Boston Center
Fri 02:05:52 PM 43.2014 -75.8547 261° West 402 463 36,000  Level Boston Center
Fri 02:06:53 PM 43.1839 -76.0056 261° West 402 463 36,000  Level Boston Center
Fri 02:07:54 PM 43.1642 -76.1847 261° West 401 461 36,000  Level Boston Center
Fri 02:08:55 PM 43.1497 -76.3364 263° West 401 461 36,000  Level Boston Center
Fri 02:09:58 PM 43.1392 -76.4875 265° West 401 461 36,000  Level Boston Center
Fri 02:10:59 PM 43.1247 -76.6372 263° West 401 461 36,000  Level Boston Center
Fri 02:12:00 PM 43.1117 -76.7889 263° West 401 461 36,000  Level Boston Center
Fri 02:12:31 PM 43.1031 -76.8794 263° West 401 461 36,000  Level Cleveland Center
Fri 02:13:33 PM 43.0892 -77.0314 263° West 402 463 36,000  Level Cleveland Center
Fri 02:14:34 PM 43.0756 -77.1817 263° West 402 463 36,000  Level Cleveland Center
Fri 02:15:36 PM 43.0614 -77.3344 263° West 403 464 36,000  Level Cleveland Center
Fri 02:16:38 PM 43.0469 -77.4856 263° West 403 464 36,000 -290 Level Cleveland Center
Fri 02:17:40 PM 43.0303 -77.6694 263° West 407 468 35,400 -829 Descending Cleveland Center
Fri 02:18:41 PM 43.0144 -77.8278 262° West 419 482 34,300 -1,073 Descending Cleveland Center
Fri 02:19:43 PM 42.9983 -77.9881 262° West 425 489 33,200 -1,452 Descending Cleveland Center
Fri 02:20:45 PM 42.9825 -78.1483 262° West 431 496 31,300 -2,195 Descending Cleveland Center
Fri 02:21:46 PM 42.9656 -78.3122 262° West 438 504 28,700 -2,927 Descending Cleveland Center
Fri 02:22:48 PM 42.9447 -78.5028 262° West 416 479 25,300 -3,532 Descending Cleveland Center
Fri 02:23:50 PM 42.9411 -78.6439 268° West 389 448 21,400 -3,268 Descending Cleveland Center
Fri 02:24:51 PM 43.0014 -78.7556 306° West 372 428 18,600 -2,927 Descending Cleveland Center
Fri 02:25:53 PM 43.0828 -78.8431 322° Northwest 371 427 15,400 -3,436 Descending Cleveland Center
Fri 02:26:48 PM 43.1500 -78.9167 321° Northwest 350 403 11,900 -2,557 Descending Toronto Center
Fri 02:27:48 PM 43.1667 -79.0167 283° West 320 368 10,500 -1,250 Descending Toronto Center
Fri 02:28:48 PM 43.2333 -79.0833 324° Northwest 280 322 9,400 -1,700 Descending Toronto Center
Fri 02:29:48 PM 43.3000 -79.1000 350° North 280 322 7,100 -2,150 Descending Toronto Center
Fri 02:30:48 PM 43.3667 -79.1000 360° North 260 299 5,100 -1,550 Descending Toronto Center
Fri 02:31:48 PM 43.4500 -79.1000 360° North 250 288 4,000 -850 Descending Toronto Center
Fri 02:32:48 PM 43.5167 -79.1333 340° North 250 288 3,400 -500 Descending Toronto Center
Fri 02:33:48 PM 43.5833 -79.1500 350° North 250 288 3,000 -200 Descending Toronto Center
Fri 02:34:48 PM 43.6500 -79.1667 350° North 260 299 3,000 -50 Level Toronto Center
Fri 02:35:48 PM 43.7167 -79.2000 340° North 250 288 2,900 -350 Descending Toronto Center
Fri 02:36:48 PM 43.7500 -79.2333 324° Northwest 190 219 2,300 -500 Descending Toronto Center
Fri 02:37:48 PM 43.8000 -79.2833 324° Northwest 170 196 1,900 -500 Descending Toronto Center
Fri 02:38:48 PM 43.8167 -79.3167 305° West 130 150 1,300 -500 Descending Toronto Center
Fri 02:39:48 PM 43.8500 -79.3500 324° Northwest 120 138 900 -400 Descending Toronto Center

Login

Don't have an account? Register now (free) for customized features, flight alerts, and more!